createdAt,value
2019-06-08T00:02:02.533Z,155.75
2019-06-08T00:04:29.587Z,158.20
2019-06-08T00:06:56.699Z,156.12
2019-06-08T00:09:24.150Z,156.80
2019-06-08T00:11:51.453Z,157.55
2019-06-08T00:14:19.207Z,157.00
2019-06-08T00:16:46.276Z,155.93
2019-06-08T00:19:13.806Z,158.07
2019-06-08T00:21:41.216Z,156.43
2019-06-08T00:24:09.518Z,156.63
2019-06-08T00:26:36.718Z,157.12
2019-06-08T00:29:03.941Z,154.93
2019-06-08T00:31:31.103Z,155.95
2019-06-08T00:33:58.470Z,156.32
2019-06-08T00:36:25.894Z,157.22
2019-06-08T00:38:52.937Z,157.05
2019-06-08T00:41:20.705Z,154.68
2019-06-08T00:43:49.374Z,157.25
2019-06-08T00:46:17.227Z,155.63
2019-06-08T00:48:44.382Z,155.67
2019-06-08T00:51:11.489Z,157.18
2019-06-08T00:53:38.522Z,158.40
2019-06-08T00:56:06.679Z,156.85
2019-06-08T00:58:33.733Z,157.27
2019-06-08T01:01:00.774Z,156.63
2019-06-08T01:03:27.818Z,156.40
2019-06-08T01:05:57.004Z,158.27
2019-06-08T01:08:27.378Z,156.32
2019-06-08T01:10:54.614Z,155.93
2019-06-08T01:13:24.843Z,155.25
2019-06-08T01:15:52.132Z,155.22
2019-06-08T01:18:21.144Z,156.12
2019-06-08T01:20:48.217Z,155.43
2019-06-08T01:23:16.338Z,155.78
2019-06-08T01:25:43.372Z,156.05
2019-06-08T01:28:10.480Z,155.43
2019-06-08T01:30:37.737Z,155.57
2019-06-08T01:33:04.770Z,155.63
2019-06-08T01:35:31.868Z,155.50
2019-06-08T01:37:58.915Z,154.75
2019-06-08T01:40:27.359Z,155.85
2019-06-08T01:42:56.463Z,156.37
2019-06-08T01:45:30.139Z,156.00
2019-06-08T01:48:15.980Z,155.63
2019-06-08T01:50:32.851Z,155.20
2019-06-08T01:53:01.321Z,156.28
2019-06-08T01:55:31.022Z,155.87
2019-06-08T01:57:58.795Z,156.32
2019-06-08T02:00:32.510Z,155.43
2019-06-08T02:02:57.142Z,156.85
2019-06-08T02:05:26.097Z,156.80
2019-06-08T02:07:53.221Z,156.12
2019-06-08T02:10:22.146Z,156.37
2019-06-08T02:12:49.253Z,157.50
2019-06-08T02:15:16.915Z,157.10
2019-06-08T02:17:45.070Z,155.15
2019-06-08T02:20:14.337Z,156.15
2019-06-08T02:22:41.361Z,155.87
2019-06-08T02:25:09.713Z,158.37
2019-06-08T02:27:40.971Z,156.05
2019-06-08T02:30:15.086Z,157.43
2019-06-08T02:32:43.165Z,156.07
2019-06-08T02:35:20.765Z,158.60
2019-06-08T02:37:49.140Z,157.93
2019-06-08T02:40:16.528Z,157.00
2019-06-08T02:42:43.738Z,158.05
2019-06-08T02:45:13.928Z,158.25
2019-06-08T02:47:41.298Z,155.70
2019-06-08T02:50:09.389Z,157.15
2019-06-08T02:52:38.285Z,156.43
2019-06-08T02:55:08.510Z,156.10
2019-06-08T02:57:39.843Z,155.20
2019-06-08T03:00:09.569Z,156.00
2019-06-08T03:02:40.462Z,158.15
2019-06-08T03:05:10.892Z,156.22
2019-06-08T03:07:41.356Z,157.85
2019-06-08T03:10:08.969Z,156.47
2019-06-08T03:12:39.764Z,156.93
2019-06-08T03:15:08.471Z,156.10
2019-06-08T03:17:35.685Z,158.22
2019-06-08T03:20:04.859Z,158.27
2019-06-08T03:22:34.029Z,155.37
2019-06-08T03:25:01.218Z,156.07
2019-06-08T03:27:28.470Z,154.47
2019-06-08T03:29:55.949Z,156.82
2019-06-08T03:32:22.982Z,155.72
2019-06-08T03:34:55.710Z,154.47
2019-06-08T03:37:19.158Z,156.67
2019-06-08T03:39:46.235Z,156.12
2019-06-08T03:42:13.620Z,155.87
2019-06-08T03:44:42.787Z,156.63
2019-06-08T03:47:09.811Z,156.28
2019-06-08T03:49:48.813Z,156.22
2019-06-08T03:52:06.071Z,156.82
2019-06-08T03:54:33.669Z,156.35
2019-06-08T03:57:01.918Z,157.30
2019-06-08T03:59:28.965Z,156.52
2019-06-08T04:01:56.056Z,156.02
2019-06-08T04:04:23.092Z,157.70
2019-06-08T04:06:50.222Z,159.27
2019-06-08T04:09:17.223Z,157.40
2019-06-08T04:11:46.768Z,159.25
2019-06-08T04:14:14.199Z,157.72
2019-06-08T04:16:42.835Z,156.47
2019-06-08T04:19:10.184Z,157.60
2019-06-08T04:21:37.928Z,158.15
2019-06-08T04:24:05.094Z,156.18
2019-06-08T04:26:33.312Z,158.27
2019-06-08T04:29:02.205Z,155.93
2019-06-08T04:31:29.277Z,159.95
2019-06-08T04:33:56.282Z,160.30
2019-06-08T04:36:23.388Z,157.93
2019-06-08T04:38:50.458Z,157.95
2019-06-08T04:41:17.863Z,156.37
2019-06-08T04:43:47.006Z,156.50
2019-06-08T04:46:13.933Z,156.60
2019-06-08T04:48:42.829Z,155.82
2019-06-08T04:51:10.124Z,155.50
2019-06-08T04:53:38.637Z,156.75
2019-06-08T04:56:05.678Z,157.25
2019-06-08T04:58:32.761Z,156.87
2019-06-08T05:00:59.811Z,160.07
2019-06-08T05:03:27.255Z,158.25
2019-06-08T05:05:54.354Z,162.22
2019-06-08T05:08:21.383Z,159.90
2019-06-08T05:10:49.636Z,160.45
2019-06-08T05:13:17.132Z,159.22
2019-06-08T05:15:45.453Z,158.00
2019-06-08T05:18:13.706Z,158.80
2019-06-08T05:20:43.091Z,160.32
2019-06-08T05:23:09.843Z,158.40
2019-06-08T05:25:36.910Z,159.72
2019-06-08T05:28:03.988Z,159.57
2019-06-08T05:30:31.039Z,160.00
2019-06-08T05:32:59.310Z,158.55
2019-06-08T05:35:27.729Z,158.03
2019-06-08T05:37:54.820Z,158.35
2019-06-08T05:40:21.846Z,158.40
2019-06-08T05:42:49.973Z,159.45
2019-06-08T05:45:17.416Z,160.25
2019-06-08T05:47:45.714Z,160.78
2019-06-08T05:50:14.451Z,160.82
2019-06-08T05:52:41.904Z,163.77
2019-06-08T05:55:09.576Z,162.60
2019-06-08T05:57:36.681Z,163.07
2019-06-08T06:00:09.110Z,165.68
2019-06-08T06:02:34.111Z,163.90
2019-06-08T06:05:01.180Z,163.22
2019-06-08T06:07:28.195Z,163.15
2019-06-08T06:09:57.494Z,161.95
2019-06-08T06:12:24.635Z,162.50
2019-06-08T06:14:51.681Z,161.18
2019-06-08T06:17:18.905Z,163.85
2019-06-08T06:19:47.223Z,163.18
2019-06-08T06:22:15.490Z,160.63
2019-06-08T06:24:43.710Z,160.95
2019-06-08T06:27:12.261Z,163.15
2019-06-08T06:29:39.289Z,159.95
2019-06-08T06:32:11.141Z,161.90
2019-06-08T06:34:39.781Z,160.52
2019-06-08T06:37:08.422Z,162.57
2019-06-08T06:39:35.486Z,160.80
2019-06-08T06:42:04.674Z,161.47
2019-06-08T06:44:34.464Z,160.88
2019-06-08T06:47:06.564Z,163.60
2019-06-08T06:49:33.684Z,160.80
2019-06-08T06:52:00.866Z,161.75
2019-06-08T06:54:28.926Z,161.35
2019-06-08T06:56:55.979Z,162.62
2019-06-08T06:59:23.086Z,164.95
2019-06-08T07:01:57.632Z,162.75
2019-06-08T07:04:31.275Z,162.47
2019-06-08T07:06:59.634Z,162.20
2019-06-08T07:09:26.687Z,163.52
2019-06-08T07:11:56.670Z,163.97
2019-06-08T07:14:24.445Z,165.88
2019-06-08T07:17:06.089Z,163.52
2019-06-08T07:19:36.019Z,165.22
2019-06-08T07:22:04.838Z,163.40
2019-06-08T07:24:31.908Z,166.95
2019-06-08T07:26:58.978Z,162.00
2019-06-08T07:29:26.851Z,164.03
2019-06-08T07:31:55.496Z,163.05
2019-06-08T07:34:22.546Z,163.37
2019-06-08T07:36:49.743Z,163.18
2019-06-08T07:39:16.943Z,164.22
2019-06-08T07:41:51.792Z,163.57
2019-06-08T07:44:19.878Z,164.30
2019-06-08T07:46:47.095Z,164.18
2019-06-08T07:49:18.187Z,160.82
2019-06-08T07:52:02.473Z,162.92
2019-06-08T07:54:22.314Z,162.82
2019-06-08T07:56:54.949Z,164.75
2019-06-08T07:59:22.080Z,164.32
2019-06-08T08:01:49.856Z,164.35
2019-06-08T08:04:17.159Z,166.07
2019-06-08T08:06:46.384Z,168.45
2019-06-08T08:09:13.431Z,166.97
2019-06-08T08:11:40.505Z,165.43
2019-06-08T08:14:07.572Z,165.97
2019-06-08T08:16:34.728Z,165.62
2019-06-08T08:19:01.881Z,163.43
2019-06-08T08:24:24.524Z,166.70
2019-06-08T08:26:54.432Z,164.15
2019-06-08T08:29:28.197Z,163.30
2019-06-08T08:32:00.138Z,164.35
2019-06-08T08:34:33.429Z,164.90
2019-06-08T08:37:06.388Z,162.60
2019-06-08T08:39:38.329Z,161.52
2019-06-08T08:42:08.539Z,161.82
2019-06-08T08:44:37.963Z,163.55
2019-06-08T08:47:08.039Z,165.30
2019-06-08T08:49:44.157Z,164.15
2019-06-08T08:52:12.297Z,163.87
2019-06-08T08:54:42.802Z,164.97
2019-06-08T08:57:12.960Z,163.90
2019-06-08T08:59:40.128Z,165.05
2019-06-08T09:02:11.547Z,163.03
2019-06-08T09:04:40.856Z,167.03
2019-06-08T09:07:10.647Z,167.05
2019-06-08T09:09:39.194Z,166.32
2019-06-08T09:12:08.255Z,167.37
2019-06-08T09:14:38.754Z,169.15
2019-06-08T09:17:09.013Z,166.62
2019-06-08T09:19:39.276Z,168.35
2019-06-08T09:22:09.422Z,169.43
2019-06-08T09:24:38.804Z,167.62
2019-06-08T09:27:08.021Z,166.57
2019-06-08T09:29:35.561Z,166.05
2019-06-08T09:32:03.629Z,169.17
2019-06-08T09:34:32.294Z,167.22
2019-06-08T09:37:02.502Z,166.60
2019-06-08T09:39:29.589Z,166.00
2019-06-08T09:42:00.410Z,164.90
2019-06-08T09:44:27.931Z,167.62
2019-06-08T09:46:58.740Z,163.72
2019-06-08T09:49:28.336Z,163.95
2019-06-08T09:51:58.737Z,164.93
2019-06-08T09:54:24.445Z,164.43
2019-06-08T09:56:51.534Z,163.92
2019-06-08T09:59:19.178Z,166.70
2019-06-08T10:01:46.417Z,167.30
2019-06-08T10:04:15.994Z,169.25
2019-06-08T10:06:43.062Z,168.55
2019-06-08T10:09:10.608Z,169.13
2019-06-08T10:11:42.163Z,169.70
2019-06-08T10:14:15.062Z,168.22
2019-06-08T10:16:42.665Z,167.53
2019-06-08T10:19:11.501Z,166.40
2019-06-08T10:21:42.843Z,165.18
2019-06-08T10:24:30.508Z,170.50
2019-06-08T10:27:11.062Z,169.93
2019-06-08T10:29:35.302Z,169.72
2019-06-08T10:32:03.841Z,171.57
2019-06-08T10:34:31.340Z,167.75
2019-06-08T10:37:03.346Z,166.37
2019-06-08T10:39:30.807Z,167.65
2019-06-08T10:42:01.483Z,169.05
2019-06-08T10:44:32.351Z,172.62
2019-06-08T10:47:03.257Z,169.93
2019-06-08T10:49:29.728Z,168.93
2019-06-08T10:52:02.161Z,170.40
2019-06-08T10:54:29.446Z,170.25
2019-06-08T10:56:59.670Z,166.53
2019-06-08T10:59:25.508Z,166.97
2019-06-08T11:01:52.553Z,166.35
2019-06-08T11:04:19.592Z,165.30
2019-06-08T11:06:48.118Z,165.68
2019-06-08T11:09:16.358Z,168.22
2019-06-08T11:11:44.136Z,166.32
2019-06-08T11:14:13.212Z,170.15
2019-06-08T11:16:40.183Z,165.62
2019-06-08T11:19:13.014Z,165.57
2019-06-08T11:21:38.587Z,167.95
2019-06-08T11:24:19.444Z,165.80
2019-06-08T11:26:35.043Z,166.80
2019-06-08T11:29:02.951Z,167.45
2019-06-08T11:31:32.227Z,168.32
2019-06-08T11:34:08.992Z,168.80
2019-06-08T11:36:52.419Z,170.45
2019-06-08T11:39:23.387Z,171.90
2019-06-08T11:42:09.838Z,171.77
2019-06-08T11:44:38.937Z,169.07
2019-06-08T11:47:13.264Z,166.18
2019-06-08T11:49:45.090Z,167.45
2019-06-08T11:52:15.434Z,165.62
2019-06-08T11:54:43.315Z,165.97
2019-06-08T11:57:18.245Z,163.62
2019-06-08T11:59:48.535Z,166.55
2019-06-08T12:02:18.464Z,166.25
2019-06-08T12:04:58.251Z,165.82
2019-06-08T12:07:32.160Z,167.07
2019-06-08T12:10:09.060Z,167.00
2019-06-08T12:12:41.208Z,165.85
2019-06-08T12:15:11.594Z,166.00
2019-06-08T12:20:37.972Z,167.80
2019-06-08T12:23:07.937Z,168.20
2019-06-08T12:25:37.780Z,168.10
2019-06-08T12:28:04.761Z,168.10
2019-06-08T12:30:31.832Z,169.22
2019-06-08T12:33:00.995Z,171.00
2019-06-08T12:35:28.831Z,172.82
2019-06-08T12:37:58.094Z,169.22
2019-06-08T12:40:25.199Z,172.07
2019-06-08T12:42:59.468Z,171.43
2019-06-08T12:45:27.593Z,173.10
2019-06-08T12:47:55.084Z,170.30
2019-06-08T12:50:22.196Z,170.30
2019-06-08T12:52:49.466Z,174.35
2019-06-08T12:55:24.739Z,170.80
2019-06-08T12:57:53.784Z,168.68
2019-06-08T13:00:21.516Z,167.18
2019-06-08T13:02:51.314Z,169.15
2019-06-08T13:05:23.076Z,170.22
2019-06-08T13:07:58.953Z,168.90
2019-06-08T13:10:27.763Z,172.13
2019-06-08T13:13:02.934Z,182.05
2019-06-08T13:15:32.670Z,178.12
2019-06-08T13:18:15.191Z,178.10
2019-06-08T13:20:43.448Z,180.40
2019-06-08T13:23:11.552Z,178.85
2019-06-08T13:25:43.526Z,177.30
2019-06-08T13:28:10.907Z,171.13
2019-06-08T13:30:38.968Z,175.68
2019-06-08T13:33:08.081Z,172.35
2019-06-08T13:35:35.208Z,173.75
2019-06-08T13:38:03.199Z,171.95
2019-06-08T13:40:30.252Z,170.45
2019-06-08T13:42:58.236Z,170.77
2019-06-08T13:45:27.827Z,171.57
2019-06-08T13:47:54.776Z,168.52
2019-06-08T13:50:23.849Z,171.35
2019-06-08T13:52:51.190Z,172.75
2019-06-08T13:55:48.014Z,173.00
2019-06-08T13:58:05.532Z,172.47
2019-06-08T14:00:34.840Z,174.02
2019-06-08T14:03:03.068Z,169.05
2019-06-08T14:05:30.942Z,170.60
2019-06-08T14:08:10.980Z,171.32
2019-06-08T14:11:08.313Z,167.85
2019-06-08T14:13:48.472Z,169.05
2019-06-08T14:16:20.261Z,168.43
2019-06-08T14:18:48.615Z,172.07
2019-06-08T14:21:21.442Z,169.87
2019-06-08T14:23:45.011Z,173.07
2019-06-08T14:26:12.108Z,170.15
2019-06-08T14:28:39.230Z,174.80
2019-06-08T14:31:08.329Z,175.18
2019-06-08T14:33:37.999Z,179.47
2019-06-08T14:36:07.779Z,173.60
2019-06-08T14:38:41.637Z,173.02
2019-06-08T14:41:07.630Z,174.50
2019-06-08T14:43:44.059Z,177.00
2019-06-08T14:46:18.479Z,172.17
2019-06-08T14:48:55.325Z,172.10
2019-06-08T14:51:47.808Z,170.10
2019-06-08T14:54:18.527Z,173.25
2019-06-08T14:56:44.485Z,175.05
2019-06-08T14:59:11.583Z,173.35
2019-06-08T15:01:38.892Z,169.95
2019-06-08T15:04:08.825Z,171.53
2019-06-08T15:06:35.308Z,171.15
2019-06-08T15:09:04.337Z,172.57
2019-06-08T15:11:34.876Z,173.47
2019-06-08T15:14:02.004Z,172.35
2019-06-08T15:16:32.496Z,177.00
2019-06-08T15:19:00.330Z,173.22
2019-06-08T15:21:32.620Z,176.70
2019-06-08T15:23:57.888Z,175.03
2019-06-08T15:26:33.629Z,172.15
2019-06-08T15:28:54.989Z,168.75
2019-06-08T15:31:25.136Z,167.30
2019-06-08T15:33:53.616Z,171.55
2019-06-08T15:36:22.078Z,169.53
2019-06-08T15:38:49.575Z,170.90
2019-06-08T15:41:18.128Z,173.85
2019-06-08T15:43:47.965Z,170.80
2019-06-08T15:46:18.490Z,170.95
2019-06-08T15:48:48.361Z,172.40
2019-06-08T15:51:14.961Z,168.62
2019-06-08T15:53:42.113Z,173.75
2019-06-08T15:56:09.347Z,171.43
2019-06-08T15:58:40.518Z,173.40
2019-06-08T16:01:07.316Z,174.23
2019-06-08T16:03:34.429Z,170.12
2019-06-08T16:06:01.555Z,169.60
2019-06-08T16:08:30.256Z,170.15
2019-06-08T16:10:59.535Z,174.38
2019-06-08T16:13:26.803Z,170.85
2019-06-08T16:15:53.843Z,172.50
2019-06-08T16:18:22.976Z,174.05
2019-06-08T16:20:50.042Z,170.35
2019-06-08T16:23:17.118Z,171.43
2019-06-08T16:25:44.271Z,174.65
2019-06-08T16:28:11.465Z,174.82
2019-06-08T16:30:39.635Z,172.20
2019-06-08T16:33:06.715Z,172.30
2019-06-08T16:35:33.805Z,175.20
2019-06-08T16:38:01.028Z,177.10
2019-06-08T16:40:29.846Z,173.32
2019-06-08T16:42:57.397Z,174.72
2019-06-08T16:45:24.518Z,174.05
2019-06-08T16:47:51.695Z,172.13
2019-06-08T16:50:25.099Z,169.30
2019-06-08T16:52:52.677Z,172.32
2019-06-08T16:55:19.712Z,169.77
2019-06-08T16:57:47.095Z,168.97
2019-06-08T17:00:33.247Z,173.02
2019-06-08T17:02:46.690Z,171.10
2019-06-08T17:05:14.189Z,168.80
2019-06-08T17:07:41.291Z,170.22
2019-06-08T17:10:08.702Z,169.53
2019-06-08T17:12:36.855Z,170.50
2019-06-08T17:15:04.702Z,171.35
2019-06-08T17:17:43.028Z,171.18
2019-06-08T17:20:14.942Z,171.18
2019-06-08T17:22:44.045Z,170.32
2019-06-08T17:25:11.517Z,169.17
2019-06-08T17:27:38.948Z,169.45
2019-06-08T17:30:10.330Z,167.77
2019-06-08T17:32:38.444Z,169.07
2019-06-08T17:35:06.818Z,166.25
2019-06-08T17:37:36.005Z,166.73
2019-06-08T17:40:03.827Z,167.90
2019-06-08T17:42:32.037Z,170.07
2019-06-08T17:45:02.555Z,167.07
2019-06-08T17:47:30.067Z,168.45
2019-06-08T17:49:58.283Z,167.72
2019-06-08T17:52:27.880Z,169.00
2019-06-08T17:54:58.338Z,169.93
2019-06-08T17:57:42.442Z,167.37
2019-06-08T18:00:09.107Z,169.00
2019-06-08T18:02:39.883Z,171.70
2019-06-08T18:05:17.921Z,171.90
2019-06-08T18:08:00.028Z,165.50
2019-06-08T18:10:36.519Z,166.80
2019-06-08T18:13:12.965Z,167.62
2019-06-08T18:15:41.765Z,166.55
2019-06-08T18:18:09.530Z,167.35
2019-06-08T18:20:39.477Z,167.07
2019-06-08T18:23:07.747Z,168.32
2019-06-08T18:25:37.530Z,168.87
2019-06-08T18:28:10.220Z,168.70
2019-06-08T18:30:32.684Z,167.18
2019-06-08T18:32:59.835Z,166.65
2019-06-08T18:35:27.769Z,165.43
2019-06-08T18:37:59.770Z,165.68
2019-06-08T18:40:29.843Z,165.90
2019-06-08T18:42:57.684Z,165.82
2019-06-08T18:45:27.455Z,166.95
2019-06-08T18:48:01.302Z,166.37
2019-06-08T18:50:39.135Z,166.97
2019-06-08T18:53:07.231Z,167.07
2019-06-08T18:55:36.294Z,165.82
2019-06-08T18:58:16.406Z,163.68
2019-06-08T19:00:43.006Z,167.25
2019-06-08T19:03:09.380Z,168.35
2019-06-08T19:05:40.309Z,164.80
2019-06-08T19:08:08.888Z,165.82
2019-06-08T19:10:37.853Z,165.50
2019-06-08T19:13:05.611Z,166.30
2019-06-08T19:15:39.884Z,166.90
2019-06-08T19:18:08.285Z,166.32
2019-06-08T19:20:43.167Z,165.00
2019-06-08T19:23:09.539Z,164.77
2019-06-08T19:25:42.206Z,164.45
2019-06-08T19:28:10.710Z,163.87
2019-06-08T19:30:43.554Z,162.68
2019-06-08T19:33:09.915Z,164.15
2019-06-08T19:35:37.652Z,167.10
2019-06-08T19:38:07.417Z,162.22
2019-06-08T19:40:38.818Z,160.55
2019-06-08T19:43:07.519Z,162.05
2019-06-08T19:45:39.101Z,165.25
2019-06-08T19:48:12.184Z,164.10
2019-06-08T19:50:53.798Z,161.03
2019-06-08T19:53:28.701Z,162.12
2019-06-08T19:56:04.691Z,160.82
2019-06-08T19:58:54.918Z,162.15
2019-06-08T20:01:18.336Z,162.40
2019-06-08T20:03:46.969Z,162.95
2019-06-08T20:06:14.548Z,163.03
2019-06-08T20:08:41.555Z,160.57
2019-06-08T20:11:09.045Z,160.78
2019-06-08T20:13:37.537Z,161.52
2019-06-08T20:16:05.170Z,160.70
2019-06-08T20:18:32.466Z,161.92
2019-06-08T20:20:59.709Z,163.87
2019-06-08T20:23:27.606Z,162.65
2019-06-08T20:25:57.455Z,165.07
2019-06-08T20:28:24.403Z,163.35
2019-06-08T20:30:52.715Z,161.90
2019-06-08T20:33:20.488Z,161.40
2019-06-08T20:35:48.536Z,161.62
2019-06-08T20:38:17.740Z,159.75
2019-06-08T20:40:46.274Z,160.82
2019-06-08T20:43:14.464Z,160.20
2019-06-08T20:45:42.052Z,160.20
2019-06-08T20:48:10.365Z,160.72
2019-06-08T20:50:49.682Z,161.85
2019-06-08T20:53:17.775Z,159.65
2019-06-08T20:55:48.221Z,159.45
2019-06-08T20:58:17.695Z,160.07
2019-06-08T21:00:46.116Z,159.27
2019-06-08T21:03:14.011Z,162.30
2019-06-08T21:05:41.343Z,161.00
2019-06-08T21:08:08.577Z,161.70
2019-06-08T21:10:37.757Z,160.48
2019-06-08T21:13:07.133Z,159.67
2019-06-08T21:15:34.233Z,162.57
2019-06-08T21:18:01.351Z,161.00
2019-06-08T21:20:28.454Z,160.07
2019-06-08T21:22:59.513Z,161.03
2019-06-08T21:25:28.123Z,160.28
2019-06-08T21:27:58.382Z,158.70
2019-06-08T21:30:28.496Z,159.30
2019-06-08T21:32:59.218Z,158.25
2019-06-08T21:35:25.374Z,160.52
2019-06-08T21:37:53.576Z,158.40
2019-06-08T21:40:21.804Z,160.32
2019-06-08T21:42:52.266Z,159.27
2019-06-08T21:45:19.897Z,159.32
2019-06-08T21:47:51.297Z,159.78
2019-06-08T21:50:18.759Z,160.18
2019-06-08T21:52:48.655Z,160.37
2019-06-08T21:55:17.648Z,158.50
2019-06-08T21:57:48.271Z,160.12
2019-06-08T22:00:37.778Z,159.90
2019-06-08T22:02:51.637Z,161.03
2019-06-08T22:05:20.008Z,160.25
2019-06-08T22:07:50.470Z,159.67
2019-06-08T22:10:19.077Z,159.12
2019-06-08T22:12:48.400Z,158.15
2019-06-08T22:15:15.207Z,158.60
2019-06-08T22:17:44.287Z,159.85
2019-06-08T22:20:12.546Z,160.48
2019-06-08T22:22:39.657Z,160.25
2019-06-08T22:25:08.153Z,158.15
2019-06-08T22:27:37.955Z,158.60
2019-06-08T22:30:13.470Z,159.45
2019-06-08T22:32:34.704Z,157.50
2019-06-08T22:35:03.494Z,157.32
2019-06-08T22:37:31.152Z,159.48
2019-06-08T22:40:01.061Z,159.57
2019-06-08T22:42:29.189Z,157.97
2019-06-08T22:44:59.293Z,158.03
2019-06-08T22:47:27.641Z,158.25
2019-06-08T22:50:00.323Z,157.95
2019-06-08T22:52:27.710Z,157.93
2019-06-08T22:55:03.439Z,158.00
2019-06-08T22:57:27.814Z,158.70
2019-06-08T22:59:58.798Z,157.80
2019-06-08T23:02:27.825Z,158.18
2019-06-08T23:04:56.233Z,157.85
2019-06-08T23:07:28.636Z,158.47
2019-06-08T23:09:52.336Z,159.25
2019-06-08T23:12:20.724Z,157.93
2019-06-08T23:14:47.893Z,159.65
2019-06-08T23:17:14.979Z,157.20
2019-06-08T23:19:42.370Z,155.80
2019-06-08T23:22:09.492Z,157.37
2019-06-08T23:24:38.346Z,157.05
2019-06-08T23:27:06.703Z,156.43
2019-06-08T23:29:33.979Z,156.12
2019-06-08T23:32:03.136Z,155.22
2019-06-08T23:34:30.047Z,156.25
2019-06-08T23:37:00.917Z,156.18
2019-06-08T23:39:28.285Z,155.22
2019-06-08T23:41:55.177Z,155.82
2019-06-08T23:44:22.324Z,157.30
2019-06-08T23:46:49.437Z,155.95
2019-06-08T23:49:18.645Z,156.82
2019-06-08T23:51:47.493Z,156.82
2019-06-08T23:54:14.508Z,157.05
2019-06-08T23:56:41.681Z,156.75
2019-06-08T23:59:09.445Z,157.78
